sensor_id;sensor_type;location;lat;lon;timestamp;temperature;humidity
72650;SHT31;61467;50.674;4.618;2022-11-04T00:01:23;10.69;80.87
72650;SHT31;61467;50.674;4.618;2022-11-04T00:03:51;10.72;80.63
72650;SHT31;61467;50.674;4.618;2022-11-04T00:06:19;10.64;80.76
72650;SHT31;61467;50.674;4.618;2022-11-04T00:08:49;10.54;81.06
72650;SHT31;61467;50.674;4.618;2022-11-04T00:11:16;10.53;81.50
72650;SHT31;61467;50.674;4.618;2022-11-04T00:14:01;10.63;80.73
72650;SHT31;61467;50.674;4.618;2022-11-04T00:16:28;10.63;80.31
72650;SHT31;61467;50.674;4.618;2022-11-04T00:19:12;10.67;80.09
72650;SHT31;61467;50.674;4.618;2022-11-04T00:21:40;10.72;79.71
72650;SHT31;61467;50.674;4.618;2022-11-04T00:24:24;10.78;79.46
72650;SHT31;61467;50.674;4.618;2022-11-04T00:27:08;10.74;79.50
72650;SHT31;61467;50.674;4.618;2022-11-04T00:29:53;10.69;79.50
72650;SHT31;61467;50.674;4.618;2022-11-04T00:32:19;10.79;79.24
72650;SHT31;61467;50.674;4.618;2022-11-04T00:35:04;10.74;79.22
72650;SHT31;61467;50.674;4.618;2022-11-04T00:37:35;10.55;79.82
72650;SHT31;61467;50.674;4.618;2022-11-04T00:40:02;10.45;80.45
72650;SHT31;61467;50.674;4.618;2022-11-04T00:42:28;10.53;80.02
72650;SHT31;61467;50.674;4.618;2022-11-04T00:44:55;10.67;79.35
72650;SHT31;61467;50.674;4.618;2022-11-04T00:47:22;10.72;78.88
72650;SHT31;61467;50.674;4.618;2022-11-04T00:49:49;10.63;78.91
72650;SHT31;61467;50.674;4.618;2022-11-04T00:52:15;10.65;79.15
72650;SHT31;61467;50.674;4.618;2022-11-04T00:54:43;10.58;79.37
72650;SHT31;61467;50.674;4.618;2022-11-04T00:57:10;10.67;79.21
72650;SHT31;61467;50.674;4.618;2022-11-04T00:59:37;10.74;78.92
72650;SHT31;61467;50.674;4.618;2022-11-04T01:02:05;10.65;78.84
72650;SHT31;61467;50.674;4.618;2022-11-04T01:04:31;10.71;78.79
72650;SHT31;61467;50.674;4.618;2022-11-04T01:06:59;10.76;78.63
72650;SHT31;61467;50.674;4.618;2022-11-04T01:09:25;10.69;78.71
72650;SHT31;61467;50.674;4.618;2022-11-04T01:11:53;10.60;79.00
72650;SHT31;61467;50.674;4.618;2022-11-04T01:14:21;10.69;78.59
72650;SHT31;61467;50.674;4.618;2022-11-04T01:16:48;10.72;78.34
72650;SHT31;61467;50.674;4.618;2022-11-04T01:19:15;10.65;78.69
72650;SHT31;61467;50.674;4.618;2022-11-04T01:21:42;10.67;78.41
72650;SHT31;61467;50.674;4.618;2022-11-04T01:24:09;10.61;78.59
72650;SHT31;61467;50.674;4.618;2022-11-04T01:26:36;10.48;78.72
72650;SHT31;61467;50.674;4.618;2022-11-04T01:29:04;10.57;78.79
72650;SHT31;61467;50.674;4.618;2022-11-04T01:31:30;10.63;78.50
72650;SHT31;61467;50.674;4.618;2022-11-04T01:33:58;10.61;78.45
72650;SHT31;61467;50.674;4.618;2022-11-04T01:36:25;10.61;78.40
72650;SHT31;61467;50.674;4.618;2022-11-04T01:38:53;10.55;78.43
72650;SHT31;61467;50.674;4.618;2022-11-04T01:41:25;10.57;78.45
72650;SHT31;61467;50.674;4.618;2022-11-04T01:43:54;10.41;79.00
72650;SHT31;61467;50.674;4.618;2022-11-04T01:46:29;10.47;78.69
72650;SHT31;61467;50.674;4.618;2022-11-04T01:49:01;10.38;78.80
72650;SHT31;61467;50.674;4.618;2022-11-04T01:51:32;10.41;78.78
72650;SHT31;61467;50.674;4.618;2022-11-04T01:54:01;10.40;78.73
72650;SHT31;61467;50.674;4.618;2022-11-04T01:56:30;10.26;79.34
72650;SHT31;61467;50.674;4.618;2022-11-04T01:59:02;10.18;80.08
72650;SHT31;61467;50.674;4.618;2022-11-04T02:01:31;10.16;79.48
72650;SHT31;61467;50.674;4.618;2022-11-04T02:04:00;10.27;79.09
72650;SHT31;61467;50.674;4.618;2022-11-04T02:06:48;10.21;79.78
72650;SHT31;61467;50.674;4.618;2022-11-04T02:09:16;10.36;78.94
72650;SHT31;61467;50.674;4.618;2022-11-04T02:11:43;10.38;78.72
72650;SHT31;61467;50.674;4.618;2022-11-04T02:14:27;10.32;78.99
72650;SHT31;61467;50.674;4.618;2022-11-04T02:17:00;10.33;78.86
72650;SHT31;61467;50.674;4.618;2022-11-04T02:19:46;10.41;78.75
72650;SHT31;61467;50.674;4.618;2022-11-04T02:22:35;10.47;78.60
72650;SHT31;61467;50.674;4.618;2022-11-04T02:25:21;10.45;78.81
72650;SHT31;61467;50.674;4.618;2022-11-04T02:28:14;10.47;78.68
72650;SHT31;61467;50.674;4.618;2022-11-04T02:30:50;10.53;78.61
72650;SHT31;61467;50.674;4.618;2022-11-04T02:33:21;10.53;78.59
72650;SHT31;61467;50.674;4.618;2022-11-04T02:35:59;10.55;78.54
72650;SHT31;61467;50.674;4.618;2022-11-04T02:38:34;10.43;79.02
72650;SHT31;61467;50.674;4.618;2022-11-04T02:41:14;10.51;78.97
72650;SHT31;61467;50.674;4.618;2022-11-04T02:43:47;10.51;79.06
72650;SHT31;61467;50.674;4.618;2022-11-04T02:46:20;10.48;79.05
72650;SHT31;61467;50.674;4.618;2022-11-04T02:48:54;10.55;78.67
72650;SHT31;61467;50.674;4.618;2022-11-04T02:51:27;10.55;78.88
72650;SHT31;61467;50.674;4.618;2022-11-04T02:54:03;10.68;78.70
72650;SHT31;61467;50.674;4.618;2022-11-04T02:56:34;10.65;78.64
72650;SHT31;61467;50.674;4.618;2022-11-04T02:59:04;10.65;78.46
72650;SHT31;61467;50.674;4.618;2022-11-04T03:01:35;10.64;78.44
72650;SHT31;61467;50.674;4.618;2022-11-04T03:04:15;10.68;78.40
72650;SHT31;61467;50.674;4.618;2022-11-04T03:06:47;10.69;78.34
72650;SHT31;61467;50.674;4.618;2022-11-04T03:09:17;10.71;78.40
72650;SHT31;61467;50.674;4.618;2022-11-04T03:11:48;10.67;78.68
72650;SHT31;61467;50.674;4.618;2022-11-04T03:14:18;10.57;79.04
72650;SHT31;61467;50.674;4.618;2022-11-04T03:16:49;10.65;78.61
72650;SHT31;61467;50.674;4.618;2022-11-04T03:19:22;10.65;78.47
72650;SHT31;61467;50.674;4.618;2022-11-04T03:21:56;10.64;78.36
72650;SHT31;61467;50.674;4.618;2022-11-04T03:24:24;10.57;78.68
72650;SHT31;61467;50.674;4.618;2022-11-04T03:26:54;10.57;78.63
72650;SHT31;61467;50.674;4.618;2022-11-04T03:29:25;10.54;78.82
72650;SHT31;61467;50.674;4.618;2022-11-04T03:32:03;10.50;78.75
72650;SHT31;61467;50.674;4.618;2022-11-04T03:34:30;10.65;78.53
72650;SHT31;61467;50.674;4.618;2022-11-04T03:36:57;10.53;78.95
72650;SHT31;61467;50.674;4.618;2022-11-04T03:39:24;10.53;79.09
72650;SHT31;61467;50.674;4.618;2022-11-04T03:41:54;10.53;79.01
72650;SHT31;61467;50.674;4.618;2022-11-04T03:44:22;10.64;78.73
72650;SHT31;61467;50.674;4.618;2022-11-04T03:46:50;10.74;78.65
72650;SHT31;61467;50.674;4.618;2022-11-04T03:49:18;10.65;78.90
72650;SHT31;61467;50.674;4.618;2022-11-04T03:51:46;10.84;78.27
72650;SHT31;61467;50.674;4.618;2022-11-04T03:54:14;10.88;78.19
72650;SHT31;61467;50.674;4.618;2022-11-04T03:57:00;10.81;78.04
72650;SHT31;61467;50.674;4.618;2022-11-04T04:00:00;10.92;78.11
72650;SHT31;61467;50.674;4.618;2022-11-04T04:02:38;10.99;78.11
72650;SHT31;61467;50.674;4.618;2022-11-04T04:05:12;10.92;78.12
72650;SHT31;61467;50.674;4.618;2022-11-04T04:07:44;10.95;78.24
72650;SHT31;61467;50.674;4.618;2022-11-04T04:10:15;10.82;78.63
72650;SHT31;61467;50.674;4.618;2022-11-04T04:13:06;10.98;78.25
72650;SHT31;61467;50.674;4.618;2022-11-04T04:15:42;11.05;78.17
72650;SHT31;61467;50.674;4.618;2022-11-04T04:18:12;11.02;78.29
72650;SHT31;61467;50.674;4.618;2022-11-04T04:20:42;11.05;78.19
72650;SHT31;61467;50.674;4.618;2022-11-04T04:23:15;11.13;78.04
72650;SHT31;61467;50.674;4.618;2022-11-04T04:26:02;11.13;77.94
72650;SHT31;61467;50.674;4.618;2022-11-04T04:28:49;11.15;77.96
72650;SHT31;61467;50.674;4.618;2022-11-04T04:31:17;11.18;77.94
72650;SHT31;61467;50.674;4.618;2022-11-04T04:33:59;11.05;77.98
72650;SHT31;61467;50.674;4.618;2022-11-04T04:36:28;11.15;78.16
72650;SHT31;61467;50.674;4.618;2022-11-04T04:38:57;11.13;78.01
72650;SHT31;61467;50.674;4.618;2022-11-04T04:41:42;11.12;78.24
72650;SHT31;61467;50.674;4.618;2022-11-04T04:44:28;11.19;78.17
72650;SHT31;61467;50.674;4.618;2022-11-04T04:47:15;11.23;77.89
72650;SHT31;61467;50.674;4.618;2022-11-04T04:49:50;11.25;77.74
72650;SHT31;61467;50.674;4.618;2022-11-04T04:52:18;11.27;77.74
72650;SHT31;61467;50.674;4.618;2022-11-04T04:54:46;11.23;77.95
72650;SHT31;61467;50.674;4.618;2022-11-04T04:57:13;11.22;77.96
72650;SHT31;61467;50.674;4.618;2022-11-04T04:59:40;11.22;77.90
72650;SHT31;61467;50.674;4.618;2022-11-04T05:02:06;11.34;77.68
72650;SHT31;61467;50.674;4.618;2022-11-04T05:04:33;11.33;77.78
72650;SHT31;61467;50.674;4.618;2022-11-04T05:07:00;11.36;77.95
72650;SHT31;61467;50.674;4.618;2022-11-04T05:09:28;11.27;78.17
72650;SHT31;61467;50.674;4.618;2022-11-04T05:11:55;11.26;78.68
72650;SHT31;61467;50.674;4.618;2022-11-04T05:14:21;11.25;78.65
72650;SHT31;61467;50.674;4.618;2022-11-04T05:16:48;11.18;78.72
72650;SHT31;61467;50.674;4.618;2022-11-04T05:19:15;11.23;78.75
72650;SHT31;61467;50.674;4.618;2022-11-04T05:21:41;11.15;79.59
72650;SHT31;61467;50.674;4.618;2022-11-04T05:24:09;11.19;79.35
72650;SHT31;61467;50.674;4.618;2022-11-04T05:26:37;11.26;79.46
72650;SHT31;61467;50.674;4.618;2022-11-04T05:29:03;11.25;80.22
72650;SHT31;61467;50.674;4.618;2022-11-04T05:31:30;11.20;79.96
72650;SHT31;61467;50.674;4.618;2022-11-04T05:33:57;11.25;79.97
72650;SHT31;61467;50.674;4.618;2022-11-04T05:36:24;11.30;79.56
72650;SHT31;61467;50.674;4.618;2022-11-04T05:38:52;11.23;79.79
72650;SHT31;61467;50.674;4.618;2022-11-04T05:41:20;11.18;80.15
72650;SHT31;61467;50.674;4.618;2022-11-04T05:43:52;11.25;80.21
72650;SHT31;61467;50.674;4.618;2022-11-04T05:46:19;11.29;79.71
72650;SHT31;61467;50.674;4.618;2022-11-04T05:48:46;11.26;79.75
72650;SHT31;61467;50.674;4.618;2022-11-04T05:51:13;11.30;79.80
72650;SHT31;61467;50.674;4.618;2022-11-04T05:53:40;11.29;80.01
72650;SHT31;61467;50.674;4.618;2022-11-04T05:56:07;11.26;79.92
72650;SHT31;61467;50.674;4.618;2022-11-04T05:58:34;11.34;79.78
72650;SHT31;61467;50.674;4.618;2022-11-04T06:01:23;11.30;79.87
72650;SHT31;61467;50.674;4.618;2022-11-04T06:03:50;11.37;79.75
72650;SHT31;61467;50.674;4.618;2022-11-04T06:06:17;11.33;79.61
72650;SHT31;61467;50.674;4.618;2022-11-04T06:08:43;11.32;79.57
72650;SHT31;61467;50.674;4.618;2022-11-04T06:11:10;11.40;79.78
72650;SHT31;61467;50.674;4.618;2022-11-04T06:13:37;11.33;79.83
72650;SHT31;61467;50.674;4.618;2022-11-04T06:16:04;11.44;79.58
72650;SHT31;61467;50.674;4.618;2022-11-04T06:18:32;11.40;79.69
72650;SHT31;61467;50.674;4.618;2022-11-04T06:21:21;11.43;79.59
72650;SHT31;61467;50.674;4.618;2022-11-04T06:23:50;11.44;79.67
72650;SHT31;61467;50.674;4.618;2022-11-04T06:26:17;11.46;79.85
72650;SHT31;61467;50.674;4.618;2022-11-04T06:28:43;11.37;79.75
72650;SHT31;61467;50.674;4.618;2022-11-04T06:31:11;11.36;79.75
72650;SHT31;61467;50.674;4.618;2022-11-04T06:33:41;11.34;79.99
72650;SHT31;61467;50.674;4.618;2022-11-04T06:36:11;11.37;80.16
72650;SHT31;61467;50.674;4.618;2022-11-04T06:38:38;11.42;79.89
72650;SHT31;61467;50.674;4.618;2022-11-04T06:41:06;11.46;79.82
72650;SHT31;61467;50.674;4.618;2022-11-04T06:43:33;11.43;79.55
72650;SHT31;61467;50.674;4.618;2022-11-04T06:46:00;11.44;79.77
72650;SHT31;61467;50.674;4.618;2022-11-04T06:48:29;11.44;79.66
72650;SHT31;61467;50.674;4.618;2022-11-04T06:50:59;11.44;79.66
72650;SHT31;61467;50.674;4.618;2022-11-04T06:53:26;11.54;79.75
72650;SHT31;61467;50.674;4.618;2022-11-04T06:55:53;11.49;79.52
72650;SHT31;61467;50.674;4.618;2022-11-04T06:58:27;11.53;79.34
72650;SHT31;61467;50.674;4.618;2022-11-04T07:00:53;11.59;79.89
72650;SHT31;61467;50.674;4.618;2022-11-04T07:03:20;11.60;79.37
72650;SHT31;61467;50.674;4.618;2022-11-04T07:05:47;11.56;79.40
72650;SHT31;61467;50.674;4.618;2022-11-04T07:08:15;11.56;79.46
72650;SHT31;61467;50.674;4.618;2022-11-04T07:10:41;11.64;79.23
72650;SHT31;61467;50.674;4.618;2022-11-04T07:13:08;11.63;78.88
72650;SHT31;61467;50.674;4.618;2022-11-04T07:15:37;11.63;79.25
72650;SHT31;61467;50.674;4.618;2022-11-04T07:18:04;11.71;79.30
72650;SHT31;61467;50.674;4.618;2022-11-04T07:20:31;11.54;79.45
72650;SHT31;61467;50.674;4.618;2022-11-04T07:22:58;11.64;79.38
72650;SHT31;61467;50.674;4.618;2022-11-04T07:25:26;11.70;79.21
72650;SHT31;61467;50.674;4.618;2022-11-04T07:27:53;11.74;79.34
72650;SHT31;61467;50.674;4.618;2022-11-04T07:30:19;11.73;79.10
72650;SHT31;61467;50.674;4.618;2022-11-04T07:32:46;11.64;79.42
72650;SHT31;61467;50.674;4.618;2022-11-04T07:35:13;11.69;79.26
72650;SHT31;61467;50.674;4.618;2022-11-04T07:37:40;11.70;79.17
72650;SHT31;61467;50.674;4.618;2022-11-04T07:40:08;11.66;78.96
72650;SHT31;61467;50.674;4.618;2022-11-04T07:42:36;11.77;78.93
72650;SHT31;61467;50.674;4.618;2022-11-04T07:45:03;11.67;79.04
72650;SHT31;61467;50.674;4.618;2022-11-04T07:47:31;11.63;79.19
72650;SHT31;61467;50.674;4.618;2022-11-04T07:49:58;11.73;79.00
72650;SHT31;61467;50.674;4.618;2022-11-04T07:52:25;11.77;78.86
72650;SHT31;61467;50.674;4.618;2022-11-04T07:54:51;11.78;79.02
72650;SHT31;61467;50.674;4.618;2022-11-04T07:57:18;11.71;78.67
72650;SHT31;61467;50.674;4.618;2022-11-04T07:59:46;11.67;79.15
72650;SHT31;61467;50.674;4.618;2022-11-04T08:02:13;11.75;78.95
72650;SHT31;61467;50.674;4.618;2022-11-04T08:04:39;11.83;79.00
72650;SHT31;61467;50.674;4.618;2022-11-04T08:07:07;11.83;78.71
72650;SHT31;61467;50.674;4.618;2022-11-04T08:09:34;11.83;78.43
72650;SHT31;61467;50.674;4.618;2022-11-04T08:12:02;11.84;78.37
72650;SHT31;61467;50.674;4.618;2022-11-04T08:14:29;11.93;78.41
72650;SHT31;61467;50.674;4.618;2022-11-04T08:16:57;12.05;78.49
72650;SHT31;61467;50.674;4.618;2022-11-04T08:19:24;11.98;78.61
72650;SHT31;61467;50.674;4.618;2022-11-04T08:21:51;12.08;78.45
72650;SHT31;61467;50.674;4.618;2022-11-04T08:24:17;12.08;78.25
72650;SHT31;61467;50.674;4.618;2022-11-04T08:26:45;12.04;78.12
72650;SHT31;61467;50.674;4.618;2022-11-04T08:29:14;11.97;78.42
72650;SHT31;61467;50.674;4.618;2022-11-04T08:31:40;12.17;78.64
72650;SHT31;61467;50.674;4.618;2022-11-04T08:34:08;12.17;78.51
72650;SHT31;61467;50.674;4.618;2022-11-04T08:36:37;12.18;78.47
72650;SHT31;61467;50.674;4.618;2022-11-04T08:39:05;12.20;78.09
72650;SHT31;61467;50.674;4.618;2022-11-04T08:41:34;12.18;77.88
72650;SHT31;61467;50.674;4.618;2022-11-04T08:44:02;12.20;78.08
72650;SHT31;61467;50.674;4.618;2022-11-04T08:46:31;12.18;77.96
72650;SHT31;61467;50.674;4.618;2022-11-04T08:48:58;12.25;77.96
72650;SHT31;61467;50.674;4.618;2022-11-04T08:51:27;12.20;77.68
72650;SHT31;61467;50.674;4.618;2022-11-04T08:53:54;12.26;78.12
72650;SHT31;61467;50.674;4.618;2022-11-04T08:56:24;12.14;78.08
72650;SHT31;61467;50.674;4.618;2022-11-04T08:58:51;12.29;77.54
72650;SHT31;61467;50.674;4.618;2022-11-04T09:01:19;12.32;77.76
72650;SHT31;61467;50.674;4.618;2022-11-04T09:03:46;12.22;78.66
72650;SHT31;61467;50.674;4.618;2022-11-04T09:06:16;12.29;78.26
72650;SHT31;61467;50.674;4.618;2022-11-04T09:08:45;12.36;77.80
72650;SHT31;61467;50.674;4.618;2022-11-04T09:11:14;12.45;77.74
72650;SHT31;61467;50.674;4.618;2022-11-04T09:13:41;12.46;77.46
72650;SHT31;61467;50.674;4.618;2022-11-04T09:16:13;12.50;77.58
72650;SHT31;61467;50.674;4.618;2022-11-04T09:18:40;12.49;77.50
72650;SHT31;61467;50.674;4.618;2022-11-04T09:21:08;12.56;77.54
72650;SHT31;61467;50.674;4.618;2022-11-04T09:23:35;12.55;77.30
72650;SHT31;61467;50.674;4.618;2022-11-04T09:26:05;12.49;77.22
72650;SHT31;61467;50.674;4.618;2022-11-04T09:28:32;12.50;77.57
72650;SHT31;61467;50.674;4.618;2022-11-04T09:31:03;12.55;77.27
72650;SHT31;61467;50.674;4.618;2022-11-04T09:33:30;12.46;77.13
72650;SHT31;61467;50.674;4.618;2022-11-04T09:35:57;12.46;77.18
72650;SHT31;61467;50.674;4.618;2022-11-04T09:38:24;12.59;76.67
72650;SHT31;61467;50.674;4.618;2022-11-04T09:40:51;12.35;77.06
72650;SHT31;61467;50.674;4.618;2022-11-04T09:43:29;12.56;76.55
72650;SHT31;61467;50.674;4.618;2022-11-04T09:45:58;12.55;77.22
72650;SHT31;61467;50.674;4.618;2022-11-04T09:48:30;12.60;76.95
72650;SHT31;61467;50.674;4.618;2022-11-04T09:50:59;12.63;76.86
72650;SHT31;61467;50.674;4.618;2022-11-04T09:53:36;12.63;77.22
72650;SHT31;61467;50.674;4.618;2022-11-04T09:56:07;12.77;77.13
72650;SHT31;61467;50.674;4.618;2022-11-04T09:58:38;12.64;77.10
72650;SHT31;61467;50.674;4.618;2022-11-04T10:01:14;12.87;77.04
72650;SHT31;61467;50.674;4.618;2022-11-04T10:03:53;12.84;76.62
72650;SHT31;61467;50.674;4.618;2022-11-04T10:06:31;13.02;76.71
72650;SHT31;61467;50.674;4.618;2022-11-04T10:09:10;13.13;76.07
72650;SHT31;61467;50.674;4.618;2022-11-04T10:11:46;13.31;75.69
72650;SHT31;61467;50.674;4.618;2022-11-04T10:14:29;12.76;75.69
72650;SHT31;61467;50.674;4.618;2022-11-04T10:17:11;12.38;75.77
72650;SHT31;61467;50.674;4.618;2022-11-04T10:19:53;12.43;77.00
72650;SHT31;61467;50.674;4.618;2022-11-04T10:22:30;12.45;77.16
72650;SHT31;61467;50.674;4.618;2022-11-04T10:25:03;12.05;79.23
72650;SHT31;61467;50.674;4.618;2022-11-04T10:27:34;12.39;79.54
72650;SHT31;61467;50.674;4.618;2022-11-04T10:30:06;12.21;79.09
72650;SHT31;61467;50.674;4.618;2022-11-04T10:32:44;12.24;79.01
72650;SHT31;61467;50.674;4.618;2022-11-04T10:35:17;12.57;79.04
72650;SHT31;61467;50.674;4.618;2022-11-04T10:37:50;12.50;78.54
72650;SHT31;61467;50.674;4.618;2022-11-04T10:40:22;12.26;77.37
72650;SHT31;61467;50.674;4.618;2022-11-04T10:42:50;12.17;78.40
72650;SHT31;61467;50.674;4.618;2022-11-04T10:45:20;12.10;78.53
72650;SHT31;61467;50.674;4.618;2022-11-04T10:47:54;11.95;79.02
72650;SHT31;61467;50.674;4.618;2022-11-04T10:50:30;11.90;79.34
72650;SHT31;61467;50.674;4.618;2022-11-04T10:53:09;12.20;79.44
72650;SHT31;61467;50.674;4.618;2022-11-04T10:55:40;12.39;78.53
72650;SHT31;61467;50.674;4.618;2022-11-04T10:58:15;12.36;78.55
72650;SHT31;61467;50.674;4.618;2022-11-04T11:00:44;12.53;78.81
72650;SHT31;61467;50.674;4.618;2022-11-04T11:03:27;12.45;78.61
72650;SHT31;61467;50.674;4.618;2022-11-04T11:06:09;12.53;78.45
72650;SHT31;61467;50.674;4.618;2022-11-04T11:08:36;12.15;79.10
72650;SHT31;61467;50.674;4.618;2022-11-04T11:11:05;11.95;80.22
72650;SHT31;61467;50.674;4.618;2022-11-04T11:13:37;12.11;80.12
72650;SHT31;61467;50.674;4.618;2022-11-04T11:16:10;12.38;79.85
72650;SHT31;61467;50.674;4.618;2022-11-04T11:18:38;12.41;79.53
72650;SHT31;61467;50.674;4.618;2022-11-04T11:21:11;11.90;80.52
72650;SHT31;61467;50.674;4.618;2022-11-04T11:23:41;11.80;81.30
72650;SHT31;61467;50.674;4.618;2022-11-04T11:26:09;12.11;80.59
72650;SHT31;61467;50.674;4.618;2022-11-04T11:28:38;12.28;80.39
72650;SHT31;61467;50.674;4.618;2022-11-04T11:31:09;12.18;80.04
72650;SHT31;61467;50.674;4.618;2022-11-04T11:33:46;12.25;79.88
72650;SHT31;61467;50.674;4.618;2022-11-04T11:36:17;12.32;79.43
72650;SHT31;61467;50.674;4.618;2022-11-04T11:38:59;12.46;79.64
72650;SHT31;61467;50.674;4.618;2022-11-04T11:41:28;12.22;80.47
72650;SHT31;61467;50.674;4.618;2022-11-04T11:43:59;11.97;81.27
72650;SHT31;61467;50.674;4.618;2022-11-04T11:46:29;11.90;80.51
72650;SHT31;61467;50.674;4.618;2022-11-04T11:48:57;12.25;79.94
72650;SHT31;61467;50.674;4.618;2022-11-04T11:51:27;12.10;80.34
72650;SHT31;61467;50.674;4.618;2022-11-04T11:54:14;12.17;80.44
72650;SHT31;61467;50.674;4.618;2022-11-04T11:56:43;12.22;79.98
72650;SHT31;61467;50.674;4.618;2022-11-04T11:59:18;11.94;79.92
72650;SHT31;61467;50.674;4.618;2022-11-04T12:01:50;12.38;79.70
72650;SHT31;61467;50.674;4.618;2022-11-04T12:04:18;12.66;79.21
72650;SHT31;61467;50.674;4.618;2022-11-04T12:06:50;12.92;78.32
72650;SHT31;61467;50.674;4.618;2022-11-04T12:09:29;12.93;77.56
72650;SHT31;61467;50.674;4.618;2022-11-04T12:12:18;12.84;77.11
72650;SHT31;61467;50.674;4.618;2022-11-04T12:14:58;12.50;78.05
72650;SHT31;61467;50.674;4.618;2022-11-04T12:17:41;12.48;78.35
72650;SHT31;61467;50.674;4.618;2022-11-04T12:20:25;12.39;77.51
72650;SHT31;61467;50.674;4.618;2022-11-04T12:22:57;12.53;76.95
72650;SHT31;61467;50.674;4.618;2022-11-04T12:25:32;12.32;77.41
72650;SHT31;61467;50.674;4.618;2022-11-04T12:28:09;12.21;76.96
72650;SHT31;61467;50.674;4.618;2022-11-04T12:30:47;12.14;77.59
72650;SHT31;61467;50.674;4.618;2022-11-04T12:33:28;12.56;76.82
72650;SHT31;61467;50.674;4.618;2022-11-04T12:36:14;12.60;76.37
72650;SHT31;61467;50.674;4.618;2022-11-04T12:41:41;12.63;75.32
72650;SHT31;61467;50.674;4.618;2022-11-04T12:44:19;12.76;74.41
72650;SHT31;61467;50.674;4.618;2022-11-04T12:46:54;12.63;75.50
72650;SHT31;61467;50.674;4.618;2022-11-04T12:49:36;12.60;75.68
72650;SHT31;61467;50.674;4.618;2022-11-04T12:52:16;12.72;76.34
72650;SHT31;61467;50.674;4.618;2022-11-04T12:54:58;12.56;75.97
72650;SHT31;61467;50.674;4.618;2022-11-04T12:57:35;12.69;76.03
72650;SHT31;61467;50.674;4.618;2022-11-04T13:00:10;12.87;75.87
72650;SHT31;61467;50.674;4.618;2022-11-04T13:02:42;13.13;75.33
72650;SHT31;61467;50.674;4.618;2022-11-04T13:05:25;12.92;75.63
72650;SHT31;61467;50.674;4.618;2022-11-04T13:07:56;12.90;75.95
72650;SHT31;61467;50.674;4.618;2022-11-04T13:10:30;13.04;75.97
72650;SHT31;61467;50.674;4.618;2022-11-04T13:13:00;12.94;75.51
72650;SHT31;61467;50.674;4.618;2022-11-04T13:15:30;12.97;75.68
72650;SHT31;61467;50.674;4.618;2022-11-04T13:18:04;13.08;75.37
72650;SHT31;61467;50.674;4.618;2022-11-04T13:20:39;13.38;74.36
72650;SHT31;61467;50.674;4.618;2022-11-04T13:23:16;13.38;73.06
72650;SHT31;61467;50.674;4.618;2022-11-04T13:25:45;13.24;73.60
72650;SHT31;61467;50.674;4.618;2022-11-04T13:28:14;12.83;74.80
72650;SHT31;61467;50.674;4.618;2022-11-04T13:30:46;13.13;74.19
72650;SHT31;61467;50.674;4.618;2022-11-04T13:33:22;12.97;74.48
72650;SHT31;61467;50.674;4.618;2022-11-04T13:35:58;12.73;74.88
72650;SHT31;61467;50.674;4.618;2022-11-04T13:38:31;12.70;74.80
72650;SHT31;61467;50.674;4.618;2022-11-04T13:41:11;12.64;74.81
72650;SHT31;61467;50.674;4.618;2022-11-04T13:43:42;12.34;75.32
72650;SHT31;61467;50.674;4.618;2022-11-04T13:46:19;12.79;74.60
72650;SHT31;61467;50.674;4.618;2022-11-04T13:48:53;12.72;75.00
72650;SHT31;61467;50.674;4.618;2022-11-04T13:51:33;12.97;74.39
72650;SHT31;61467;50.674;4.618;2022-11-04T13:54:01;12.73;75.28
72650;SHT31;61467;50.674;4.618;2022-11-04T13:56:31;12.93;75.33
72650;SHT31;61467;50.674;4.618;2022-11-04T13:59:02;12.67;75.09
72650;SHT31;61467;50.674;4.618;2022-11-04T14:01:31;12.75;74.87
72650;SHT31;61467;50.674;4.618;2022-11-04T14:06:56;12.77;74.81
72650;SHT31;61467;50.674;4.618;2022-11-04T14:09:51;12.92;74.50
72650;SHT31;61467;50.674;4.618;2022-11-04T14:12:31;12.92;74.57
72650;SHT31;61467;50.674;4.618;2022-11-04T14:15:15;12.52;75.93
72650;SHT31;61467;50.674;4.618;2022-11-04T14:18:01;12.48;76.49
72650;SHT31;61467;50.674;4.618;2022-11-04T14:20:33;12.53;76.50
72650;SHT31;61467;50.674;4.618;2022-11-04T14:23:04;12.46;76.64
72650;SHT31;61467;50.674;4.618;2022-11-04T14:25:35;12.70;76.46
72650;SHT31;61467;50.674;4.618;2022-11-04T14:28:24;12.76;75.94
72650;SHT31;61467;50.674;4.618;2022-11-04T14:30:53;12.39;76.71
72650;SHT31;61467;50.674;4.618;2022-11-04T14:33:31;12.62;76.57
72650;SHT31;61467;50.674;4.618;2022-11-04T14:36:22;12.34;77.12
72650;SHT31;61467;50.674;4.618;2022-11-04T14:38:56;12.32;77.00
72650;SHT31;61467;50.674;4.618;2022-11-04T14:41:53;12.32;76.76
72650;SHT31;61467;50.674;4.618;2022-11-04T14:44:28;12.18;77.00
72650;SHT31;61467;50.674;4.618;2022-11-04T14:46:58;12.22;76.87
72650;SHT31;61467;50.674;4.618;2022-11-04T14:49:34;12.01;77.76
72650;SHT31;61467;50.674;4.618;2022-11-04T14:52:04;11.99;77.75
72650;SHT31;61467;50.674;4.618;2022-11-04T14:54:35;12.04;78.27
72650;SHT31;61467;50.674;4.618;2022-11-04T14:57:17;12.42;77.98
72650;SHT31;61467;50.674;4.618;2022-11-04T14:59:44;12.77;76.39
72650;SHT31;61467;50.674;4.618;2022-11-04T15:02:17;12.66;75.77
72650;SHT31;61467;50.674;4.618;2022-11-04T15:04:48;13.00;75.14
72650;SHT31;61467;50.674;4.618;2022-11-04T15:07:25;12.86;75.12
72650;SHT31;61467;50.674;4.618;2022-11-04T15:09:58;13.10;74.55
72650;SHT31;61467;50.674;4.618;2022-11-04T15:12:26;13.08;75.16
72650;SHT31;61467;50.674;4.618;2022-11-04T15:15:29;13.21;73.33
72650;SHT31;61467;50.674;4.618;2022-11-04T15:17:59;13.04;74.42
72650;SHT31;61467;50.674;4.618;2022-11-04T15:20:28;12.90;74.50
72650;SHT31;61467;50.674;4.618;2022-11-04T15:22:57;12.79;74.71
72650;SHT31;61467;50.674;4.618;2022-11-04T15:25:26;12.57;75.15
72650;SHT31;61467;50.674;4.618;2022-11-04T15:27:54;12.48;76.04
72650;SHT31;61467;50.674;4.618;2022-11-04T15:30:24;12.50;75.77
72650;SHT31;61467;50.674;4.618;2022-11-04T15:32:55;12.50;75.50
72650;SHT31;61467;50.674;4.618;2022-11-04T15:35:24;12.17;76.24
72650;SHT31;61467;50.674;4.618;2022-11-04T15:37:51;12.45;75.39
72650;SHT31;61467;50.674;4.618;2022-11-04T15:40:19;12.34;75.87
72650;SHT31;61467;50.674;4.618;2022-11-04T15:42:48;12.39;75.11
72650;SHT31;61467;50.674;4.618;2022-11-04T15:45:27;12.17;73.60
72650;SHT31;61467;50.674;4.618;2022-11-04T15:48:29;11.74;74.11
72650;SHT31;61467;50.674;4.618;2022-11-04T15:51:17;11.91;73.47
72650;SHT31;61467;50.674;4.618;2022-11-04T15:53:56;11.70;72.72
72650;SHT31;61467;50.674;4.618;2022-11-04T15:56:26;11.34;73.04
72650;SHT31;61467;50.674;4.618;2022-11-04T15:58:55;11.71;73.18
72650;SHT31;61467;50.674;4.618;2022-11-04T16:01:22;11.77;72.64
72650;SHT31;61467;50.674;4.618;2022-11-04T16:03:52;11.70;72.31
72650;SHT31;61467;50.674;4.618;2022-11-04T16:06:31;11.09;73.90